createdAt,value
2023-05-17T00:00:47.008Z,11.85
2023-05-17T00:01:50.391Z,11.15
2023-05-17T00:02:53.706Z,11.48
2023-05-17T00:03:58.355Z,11.43
2023-05-17T00:05:01.732Z,11.07
2023-05-17T00:06:07.563Z,10.70
2023-05-17T00:07:10.815Z,11.81
2023-05-17T00:08:14.247Z,10.77
2023-05-17T00:09:17.465Z,10.88
2023-05-17T00:10:20.837Z,11.47
2023-05-17T00:11:24.061Z,11.60
2023-05-17T00:12:27.658Z,11.30
2023-05-17T00:13:31.056Z,11.16
2023-05-17T00:14:34.326Z,10.95
2023-05-17T00:15:37.695Z,11.17
2023-05-17T00:16:41.066Z,11.95
2023-05-17T00:17:44.370Z,11.95
2023-05-17T00:18:47.838Z,11.35
2023-05-17T00:19:51.435Z,11.99
2023-05-17T00:20:54.784Z,11.29
2023-05-17T00:21:58.120Z,11.44
2023-05-17T00:23:02.647Z,11.52
2023-05-17T00:24:06.276Z,11.55
2023-05-17T00:25:09.712Z,11.54
2023-05-17T00:26:15.084Z,10.89
2023-05-17T00:27:18.575Z,10.90
2023-05-17T00:28:22.173Z,10.92
2023-05-17T00:29:25.464Z,10.99
2023-05-17T00:30:28.789Z,10.95
2023-05-17T00:31:32.970Z,11.52
2023-05-17T00:32:36.512Z,10.87
2023-05-17T00:33:39.884Z,10.92
2023-05-17T00:34:43.249Z,10.95
2023-05-17T00:35:46.594Z,11.50
2023-05-17T00:36:49.897Z,11.45
2023-05-17T00:37:53.155Z,11.77
2023-05-17T00:38:57.396Z,11.24
2023-05-17T00:40:00.636Z,11.37
2023-05-17T00:41:03.904Z,12.31
2023-05-17T00:42:07.404Z,11.56
2023-05-17T00:43:11.097Z,11.93
2023-05-17T00:44:14.640Z,12.14
2023-05-17T00:45:18.959Z,12.40
2023-05-17T00:46:22.237Z,12.32
2023-05-17T00:47:25.610Z,12.43
2023-05-17T00:48:30.124Z,12.70
2023-05-17T00:49:33.706Z,12.98
2023-05-17T00:50:37.324Z,12.43
2023-05-17T00:51:42.513Z,13.07
2023-05-17T00:52:48.689Z,12.70
2023-05-17T00:53:54.158Z,12.91
2023-05-17T00:54:57.596Z,11.98
2023-05-17T00:56:02.170Z,12.31
2023-05-17T00:57:07.430Z,12.95
2023-05-17T00:58:12.195Z,12.41
2023-05-17T00:59:15.552Z,13.20
2023-05-17T01:00:19.374Z,12.64
2023-05-17T01:01:22.827Z,12.67
2023-05-17T01:02:26.337Z,12.85
2023-05-17T01:03:29.857Z,13.00
2023-05-17T01:04:33.740Z,13.53
2023-05-17T01:05:37.146Z,13.55
2023-05-17T01:06:41.229Z,13.71
2023-05-17T01:07:46.452Z,13.83
2023-05-17T01:08:51.920Z,13.83
2023-05-17T01:09:56.792Z,13.74
2023-05-17T01:11:40.612Z,12.50
2023-05-17T01:12:59.489Z,13.32
2023-05-17T01:14:25.487Z,13.70
2023-05-17T01:15:34.507Z,12.99
2023-05-17T01:16:43.395Z,13.34
2023-05-17T01:18:08.144Z,13.75
2023-05-17T01:19:37.341Z,13.77
2023-05-17T01:20:46.384Z,14.50
2023-05-17T01:22:16.955Z,13.71
2023-05-17T01:23:38.168Z,14.08
2023-05-17T01:24:59.653Z,13.92
2023-05-17T01:26:12.083Z,13.52
2023-05-17T01:27:18.015Z,13.84
2023-05-17T01:28:23.960Z,13.83
2023-05-17T01:29:32.851Z,13.37
2023-05-17T01:30:38.888Z,13.90
2023-05-17T01:31:43.613Z,14.10
2023-05-17T01:32:47.227Z,13.86
2023-05-17T01:33:51.128Z,14.23
2023-05-17T01:34:54.505Z,13.80
2023-05-17T01:35:57.775Z,13.97
2023-05-17T01:37:01.777Z,13.68
2023-05-17T01:38:06.536Z,12.86
2023-05-17T01:39:10.014Z,13.21
2023-05-17T01:40:13.858Z,13.54
2023-05-17T01:41:17.346Z,13.30
2023-05-17T01:42:33.444Z,13.38
2023-05-17T01:43:48.404Z,13.73
2023-05-17T01:45:19.205Z,13.46
2023-05-17T01:46:28.341Z,13.80
2023-05-17T01:48:01.723Z,13.93
2023-05-17T01:49:18.024Z,13.24
2023-05-17T01:50:26.070Z,13.93
2023-05-17T01:51:35.867Z,14.49
2023-05-17T01:52:46.020Z,14.82
2023-05-17T01:53:59.055Z,14.02
2023-05-17T01:55:17.510Z,13.70
2023-05-17T01:56:33.799Z,13.73
2023-05-17T01:57:38.242Z,13.93
2023-05-17T01:58:49.753Z,14.05
2023-05-17T01:59:55.450Z,14.22
2023-05-17T02:01:02.167Z,14.40
2023-05-17T02:02:10.227Z,14.37
2023-05-17T02:03:18.337Z,14.12
2023-05-17T02:04:21.818Z,13.90
2023-05-17T02:05:25.312Z,14.79
2023-05-17T02:06:28.631Z,14.44
2023-05-17T02:07:31.970Z,14.74
2023-05-17T02:08:37.202Z,15.60
2023-05-17T02:09:40.621Z,16.04
2023-05-17T02:10:43.965Z,15.66
2023-05-17T02:11:47.249Z,15.28
2023-05-17T02:12:50.669Z,15.25
2023-05-17T02:13:53.960Z,15.42
2023-05-17T02:14:57.571Z,15.49
2023-05-17T02:16:05.078Z,15.40
2023-05-17T02:17:09.571Z,14.23
2023-05-17T02:18:16.154Z,14.72
2023-05-17T02:19:19.859Z,14.70
2023-05-17T02:20:23.357Z,15.46
2023-05-17T02:21:28.171Z,13.89
2023-05-17T02:22:32.537Z,15.35
2023-05-17T02:23:35.830Z,15.21
2023-05-17T02:24:40.577Z,15.27
2023-05-17T02:25:44.023Z,14.21
2023-05-17T02:26:48.028Z,13.70
2023-05-17T02:27:51.385Z,13.81
2023-05-17T02:28:54.933Z,14.25
2023-05-17T02:29:58.369Z,13.53
2023-05-17T02:31:03.593Z,14.19
2023-05-17T02:32:07.383Z,14.68
2023-05-17T02:33:10.763Z,13.86
2023-05-17T02:34:14.200Z,13.63
2023-05-17T02:35:18.269Z,14.10
2023-05-17T02:36:22.541Z,14.42
2023-05-17T02:37:26.619Z,13.76
2023-05-17T02:38:30.005Z,14.33
2023-05-17T02:39:36.411Z,14.31
2023-05-17T02:40:42.682Z,14.87
2023-05-17T02:41:46.022Z,13.96
2023-05-17T02:42:49.291Z,14.15
2023-05-17T02:43:52.986Z,13.78
2023-05-17T02:44:58.650Z,13.75
2023-05-17T02:46:02.071Z,13.28
2023-05-17T02:47:05.667Z,13.50
2023-05-17T02:48:09.226Z,13.79
2023-05-17T02:49:12.688Z,13.70
2023-05-17T02:50:16.323Z,13.66
2023-05-17T02:51:19.721Z,13.46
2023-05-17T02:52:23.038Z,13.79
2023-05-17T02:53:26.326Z,13.95
2023-05-17T02:54:29.619Z,13.73
2023-05-17T02:55:32.920Z,13.14
2023-05-17T02:56:37.265Z,13.59
2023-05-17T02:57:40.727Z,13.23
2023-05-17T02:58:44.410Z,14.03
2023-05-17T02:59:48.081Z,13.66
2023-05-17T03:00:52.275Z,13.16
2023-05-17T03:01:55.974Z,12.66
2023-05-17T03:02:59.400Z,13.46
2023-05-17T03:04:03.011Z,14.26
2023-05-17T03:05:07.003Z,13.72
2023-05-17T03:06:12.251Z,13.89
2023-05-17T03:07:15.724Z,13.57
2023-05-17T03:08:19.566Z,14.20
2023-05-17T03:09:24.631Z,13.69
2023-05-17T03:10:28.492Z,14.53
2023-05-17T03:11:32.489Z,13.56
2023-05-17T03:12:36.925Z,13.01
2023-05-17T03:13:40.449Z,12.77
2023-05-17T03:14:44.073Z,13.07
2023-05-17T03:15:47.832Z,12.99
2023-05-17T03:16:51.584Z,13.43
2023-05-17T03:17:55.045Z,13.81
2023-05-17T03:18:59.549Z,12.37
2023-05-17T03:20:02.914Z,11.54
2023-05-17T03:21:07.359Z,11.19
2023-05-17T03:22:10.717Z,10.83
2023-05-17T03:23:14.817Z,11.33
2023-05-17T03:24:30.232Z,10.89
2023-05-17T03:25:34.394Z,10.24
2023-05-17T03:26:38.226Z,9.99
2023-05-17T03:27:42.881Z,10.01
2023-05-17T03:28:50.151Z,10.30
2023-05-17T03:29:54.642Z,10.14
2023-05-17T03:31:00.015Z,9.56
2023-05-17T03:32:08.079Z,9.18
2023-05-17T03:33:11.578Z,9.05
2023-05-17T03:34:14.999Z,8.95
2023-05-17T03:35:18.323Z,8.75
2023-05-17T03:36:26.634Z,8.73
2023-05-17T03:37:30.300Z,8.64
2023-05-17T03:38:33.949Z,9.21
2023-05-17T03:39:37.444Z,8.59
2023-05-17T03:40:42.207Z,8.55
2023-05-17T03:41:45.870Z,8.17
2023-05-17T03:42:50.099Z,8.02
2023-05-17T03:43:53.750Z,7.68
2023-05-17T03:44:58.567Z,7.75
2023-05-17T03:46:02.179Z,8.11
2023-05-17T03:47:07.025Z,7.62
2023-05-17T03:48:10.345Z,8.04
2023-05-17T03:49:13.960Z,8.17
2023-05-17T03:50:17.583Z,7.17
2023-05-17T03:51:21.615Z,8.33
2023-05-17T03:52:25.185Z,7.64
2023-05-17T03:53:28.575Z,8.41
2023-05-17T03:54:32.011Z,8.22
2023-05-17T03:55:36.476Z,7.79
2023-05-17T03:56:40.405Z,7.34
2023-05-17T03:57:45.549Z,7.53
2023-05-17T03:58:48.836Z,7.94
2023-05-17T03:59:52.562Z,7.31
2023-05-17T04:00:57.999Z,6.97
2023-05-17T04:02:01.888Z,6.44
2023-05-17T04:03:06.558Z,6.48
2023-05-17T04:04:11.066Z,6.87
2023-05-17T04:05:14.397Z,6.66
2023-05-17T04:06:19.674Z,6.21
2023-05-17T04:07:23.193Z,6.51
2023-05-17T04:08:26.691Z,6.83
2023-05-17T04:09:32.911Z,6.57
2023-05-17T04:10:36.383Z,6.60
2023-05-17T04:11:41.913Z,6.20
2023-05-17T04:12:47.652Z,5.89
2023-05-17T04:13:53.318Z,6.45
2023-05-17T04:14:57.627Z,6.17
2023-05-17T04:16:01.802Z,5.94
2023-05-17T04:17:05.225Z,6.24
2023-05-17T04:18:08.851Z,6.55
2023-05-17T04:19:12.324Z,6.52
2023-05-17T04:20:16.467Z,6.19
2023-05-17T04:21:22.946Z,5.99
2023-05-17T04:22:27.320Z,6.13
2023-05-17T04:23:31.369Z,5.64
2023-05-17T04:24:35.901Z,5.74
2023-05-17T04:25:39.549Z,5.94
2023-05-17T04:26:43.244Z,5.91
2023-05-17T04:27:48.152Z,5.97
2023-05-17T04:28:51.785Z,5.35
2023-05-17T04:29:55.081Z,5.97
2023-05-17T04:30:58.535Z,5.72
2023-05-17T04:32:03.100Z,5.91
2023-05-17T04:33:06.783Z,5.12
2023-05-17T04:34:10.692Z,5.50
2023-05-17T04:35:14.172Z,5.52
2023-05-17T04:36:22.422Z,5.78
2023-05-17T04:37:26.320Z,5.60
2023-05-17T04:38:34.622Z,5.55
2023-05-17T04:39:38.042Z,5.89
2023-05-17T04:40:41.629Z,6.24
2023-05-17T04:41:45.235Z,6.20
2023-05-17T04:42:50.860Z,5.39
2023-05-17T04:43:54.432Z,5.73
2023-05-17T04:45:04.888Z,5.92
2023-05-17T04:46:09.695Z,5.72
2023-05-17T04:47:13.092Z,5.61
2023-05-17T04:48:20.306Z,5.93
2023-05-17T04:49:25.845Z,5.39
2023-05-17T04:50:30.730Z,5.23
2023-05-17T04:51:35.205Z,5.68
2023-05-17T04:52:39.212Z,5.58
2023-05-17T04:53:42.486Z,5.85
2023-05-17T04:54:51.197Z,5.48
2023-05-17T04:55:54.820Z,5.74
2023-05-17T04:56:58.441Z,6.45
2023-05-17T04:58:20.088Z,5.70
2023-05-17T04:59:29.112Z,5.81
2023-05-17T05:00:33.521Z,5.34
2023-05-17T05:01:39.919Z,5.64
2023-05-17T05:02:43.463Z,5.32
2023-05-17T05:03:48.118Z,5.42
2023-05-17T05:04:51.785Z,5.81
2023-05-17T05:05:55.423Z,6.03
2023-05-17T05:06:59.480Z,5.91
2023-05-17T05:08:02.924Z,5.67
2023-05-17T05:09:06.661Z,5.32
2023-05-17T05:10:12.086Z,5.74
2023-05-17T05:11:16.047Z,5.22
2023-05-17T05:12:19.955Z,5.35
2023-05-17T05:13:24.339Z,5.04
2023-05-17T05:14:29.048Z,5.53
2023-05-17T05:15:33.816Z,5.64
2023-05-17T05:16:37.457Z,5.61
2023-05-17T05:17:40.948Z,5.49
2023-05-17T05:18:44.630Z,5.45
2023-05-17T05:19:48.167Z,5.53
2023-05-17T05:20:51.776Z,5.21
2023-05-17T05:21:55.537Z,5.51
2023-05-17T05:22:59.712Z,5.80
2023-05-17T05:24:04.967Z,5.70
2023-05-17T05:25:08.908Z,6.06
2023-05-17T05:26:12.215Z,5.35
2023-05-17T05:27:15.676Z,5.43
2023-05-17T05:28:19.092Z,5.54
2023-05-17T05:29:22.423Z,5.19
2023-05-17T05:30:25.682Z,5.40
2023-05-17T05:31:32.729Z,5.33
2023-05-17T05:32:38.687Z,5.79
2023-05-17T05:33:42.465Z,5.32
2023-05-17T05:34:45.872Z,5.61
2023-05-17T05:35:50.090Z,5.38
2023-05-17T05:36:53.627Z,5.61
2023-05-17T05:37:58.770Z,5.47
2023-05-17T05:39:02.594Z,6.04
2023-05-17T05:40:09.669Z,5.77
2023-05-17T05:41:13.214Z,5.46
2023-05-17T05:42:17.592Z,5.47
2023-05-17T05:43:20.814Z,5.41
2023-05-17T05:44:25.938Z,5.59
2023-05-17T05:45:31.395Z,5.50
2023-05-17T05:46:38.495Z,6.31
2023-05-17T05:47:42.935Z,5.58
2023-05-17T05:48:46.398Z,5.58
2023-05-17T05:49:50.062Z,5.48
2023-05-17T05:50:53.440Z,5.11
2023-05-17T05:51:56.721Z,5.31
2023-05-17T05:53:10.942Z,5.49
2023-05-17T05:54:24.350Z,5.62
2023-05-17T05:55:28.761Z,5.41
2023-05-17T05:56:32.370Z,5.69
2023-05-17T05:57:36.517Z,5.66
2023-05-17T05:58:39.834Z,5.52
2023-05-17T05:59:43.538Z,5.48
2023-05-17T06:00:46.782Z,5.77
2023-05-17T06:01:50.162Z,5.25
2023-05-17T06:02:54.718Z,5.49
2023-05-17T06:03:58.158Z,5.85
2023-05-17T06:05:04.193Z,5.38
2023-05-17T06:06:07.616Z,5.53
2023-05-17T06:07:11.302Z,5.66
2023-05-17T06:08:14.713Z,5.58
2023-05-17T06:09:18.034Z,5.35
2023-05-17T06:10:21.457Z,5.20
2023-05-17T06:11:26.808Z,5.41
2023-05-17T06:12:30.076Z,5.64
2023-05-17T06:13:33.639Z,5.90
2023-05-17T06:14:38.318Z,5.79
2023-05-17T06:15:41.936Z,5.86
2023-05-17T06:16:45.207Z,5.88
2023-05-17T06:17:48.615Z,5.85
2023-05-17T06:18:51.998Z,5.68
2023-05-17T06:19:55.786Z,5.59
2023-05-17T06:21:00.279Z,5.80
2023-05-17T06:22:03.730Z,5.43
2023-05-17T06:23:07.396Z,5.27
2023-05-17T06:24:10.770Z,5.75
2023-05-17T06:25:15.687Z,5.76
2023-05-17T06:26:19.014Z,5.54
2023-05-17T06:27:22.351Z,5.35
2023-05-17T06:28:25.753Z,5.75
2023-05-17T06:29:29.112Z,6.04
2023-05-17T06:30:34.600Z,5.67
2023-05-17T06:31:38.128Z,5.89
2023-05-17T06:32:41.553Z,5.72
2023-05-17T06:33:45.079Z,5.65
2023-05-17T06:34:48.403Z,5.98
2023-05-17T06:35:57.116Z,6.23
2023-05-17T06:37:01.014Z,6.19
2023-05-17T06:38:04.311Z,6.05
2023-05-17T06:39:07.966Z,5.97
2023-05-17T06:40:16.519Z,5.62
2023-05-17T06:41:20.548Z,5.60
2023-05-17T06:42:23.843Z,6.01
2023-05-17T06:43:27.955Z,5.86
2023-05-17T06:44:31.445Z,5.68
2023-05-17T06:45:34.776Z,5.47
2023-05-17T06:46:38.003Z,6.17
2023-05-17T06:47:41.980Z,5.37
2023-05-17T06:48:45.689Z,5.42
2023-05-17T06:49:50.187Z,5.83
2023-05-17T06:50:54.909Z,5.73
2023-05-17T06:52:03.740Z,6.06
2023-05-17T06:53:06.955Z,6.22
2023-05-17T06:54:10.169Z,5.92
2023-05-17T06:55:13.624Z,5.86
2023-05-17T06:56:18.314Z,5.82
2023-05-17T06:57:21.720Z,5.72
2023-05-17T06:58:25.107Z,5.75
2023-05-17T06:59:28.616Z,6.07
2023-05-17T07:00:32.785Z,5.63
2023-05-17T07:01:37.643Z,6.12
2023-05-17T07:02:41.177Z,6.26
2023-05-17T07:03:44.741Z,5.86
2023-05-17T07:04:48.176Z,5.98
2023-05-17T07:05:51.738Z,5.92
2023-05-17T07:06:55.132Z,6.54
2023-05-17T07:08:00.073Z,6.20
2023-05-17T07:09:06.120Z,6.18
2023-05-17T07:10:10.188Z,5.93
2023-05-17T07:11:13.426Z,6.48
2023-05-17T07:12:16.720Z,6.38
2023-05-17T07:13:20.074Z,6.50
2023-05-17T07:14:24.063Z,6.12
2023-05-17T07:15:27.472Z,6.04
2023-05-17T07:16:31.224Z,5.97
2023-05-17T07:17:34.572Z,6.59
2023-05-17T07:18:37.951Z,6.42
2023-05-17T07:19:42.893Z,6.23
2023-05-17T07:20:46.238Z,6.01
2023-05-17T07:21:49.543Z,6.56
2023-05-17T07:22:52.807Z,6.47
2023-05-17T07:23:56.236Z,6.84
2023-05-17T07:24:59.562Z,6.66
2023-05-17T07:26:02.991Z,6.46
2023-05-17T07:27:06.638Z,6.37
2023-05-17T07:28:10.087Z,6.38
2023-05-17T07:29:14.032Z,6.42
2023-05-17T07:30:18.302Z,6.77
2023-05-17T07:31:21.588Z,6.63
2023-05-17T07:32:24.927Z,6.65
2023-05-17T07:33:29.465Z,6.84
2023-05-17T07:34:32.831Z,6.69
2023-05-17T07:35:38.101Z,6.84
2023-05-17T07:36:42.839Z,6.57
2023-05-17T07:37:47.519Z,6.70
2023-05-17T07:38:50.750Z,6.58
2023-05-17T07:39:54.581Z,6.75
2023-05-17T07:40:59.994Z,6.94
2023-05-17T07:42:05.451Z,7.21
2023-05-17T07:43:09.048Z,7.18
2023-05-17T07:44:12.376Z,6.93
2023-05-17T07:45:15.617Z,6.94
2023-05-17T07:46:19.348Z,6.41
2023-05-17T07:47:22.566Z,6.66
2023-05-17T07:48:26.338Z,7.34
2023-05-17T07:49:31.423Z,7.07
2023-05-17T07:50:34.754Z,7.62
2023-05-17T07:51:38.013Z,6.82
2023-05-17T07:52:41.312Z,6.62
2023-05-17T07:53:44.614Z,7.03
2023-05-17T07:54:47.871Z,7.17
2023-05-17T07:55:51.232Z,7.05
2023-05-17T07:56:56.153Z,6.78
2023-05-17T07:57:59.814Z,6.82
2023-05-17T07:59:03.192Z,6.69
2023-05-17T08:00:07.393Z,6.80
2023-05-17T08:01:14.535Z,6.83
2023-05-17T08:02:19.113Z,6.64
2023-05-17T08:03:22.520Z,6.51
2023-05-17T08:04:25.898Z,6.70
2023-05-17T08:05:29.477Z,6.96
2023-05-17T08:06:34.453Z,6.92
2023-05-17T08:07:37.871Z,7.40
2023-05-17T08:08:41.856Z,6.79
2023-05-17T08:09:46.330Z,7.07
2023-05-17T08:10:50.458Z,7.59
2023-05-17T08:11:54.842Z,7.50
2023-05-17T08:12:58.069Z,6.93
2023-05-17T08:14:04.180Z,7.37
2023-05-17T08:15:08.468Z,6.94
2023-05-17T08:16:14.788Z,6.88
2023-05-17T08:17:18.476Z,6.78
2023-05-17T08:18:22.054Z,7.41
2023-05-17T08:19:25.662Z,6.81
2023-05-17T08:20:29.013Z,7.14
2023-05-17T08:21:32.787Z,7.13
2023-05-17T08:22:37.450Z,7.24
2023-05-17T08:23:42.652Z,7.14
2023-05-17T08:24:47.192Z,7.20
2023-05-17T08:25:50.556Z,7.42
2023-05-17T08:26:54.163Z,7.45
2023-05-17T08:27:57.490Z,6.94
2023-05-17T08:29:02.208Z,7.13
2023-05-17T08:30:09.148Z,7.35
2023-05-17T08:31:15.028Z,6.93
2023-05-17T08:32:18.319Z,7.33
2023-05-17T08:33:23.232Z,7.65
2023-05-17T08:34:26.668Z,7.35
2023-05-17T08:35:30.196Z,7.32
2023-05-17T08:36:35.546Z,7.09
2023-05-17T08:37:39.210Z,7.35
2023-05-17T08:38:43.726Z,7.39
2023-05-17T08:39:47.280Z,7.49
2023-05-17T08:40:56.528Z,6.78
2023-05-17T08:42:00.390Z,7.52
2023-05-17T08:43:04.353Z,7.17
2023-05-17T08:44:08.527Z,7.43
2023-05-17T08:45:14.102Z,7.58
2023-05-17T08:46:22.319Z,7.03
2023-05-17T08:47:30.674Z,7.27
2023-05-17T08:48:37.491Z,7.18
2023-05-17T08:49:41.675Z,7.02
2023-05-17T08:50:48.443Z,6.96
2023-05-17T08:51:55.130Z,7.38
2023-05-17T08:52:59.285Z,7.58
2023-05-17T08:54:08.740Z,7.44
2023-05-17T08:55:12.205Z,7.62
2023-05-17T08:56:19.456Z,6.84
2023-05-17T08:57:27.142Z,7.32
2023-05-17T08:58:52.243Z,7.57
2023-05-17T09:00:19.966Z,6.85
2023-05-17T09:01:26.498Z,6.96
2023-05-17T09:02:33.079Z,7.13
2023-05-17T09:03:41.013Z,6.78
2023-05-17T09:04:46.476Z,7.40
2023-05-17T09:05:55.270Z,7.40
2023-05-17T09:06:59.668Z,7.59
2023-05-17T09:08:03.501Z,7.42
2023-05-17T09:09:10.092Z,6.99
2023-05-17T09:10:14.338Z,7.47
2023-05-17T09:11:28.398Z,7.18
2023-05-17T09:12:37.945Z,7.10
2023-05-17T09:13:41.185Z,6.99
2023-05-17T09:14:44.555Z,7.43
2023-05-17T09:15:51.065Z,7.26
2023-05-17T09:16:58.847Z,6.97
2023-05-17T09:18:02.774Z,7.24
2023-05-17T09:19:08.064Z,6.47
2023-05-17T09:20:12.997Z,6.78
2023-05-17T09:21:17.417Z,6.99
2023-05-17T09:22:21.285Z,6.81
2023-05-17T09:23:24.674Z,6.87
2023-05-17T09:24:32.212Z,7.56
2023-05-17T09:25:35.526Z,7.12
2023-05-17T09:26:43.988Z,7.35
2023-05-17T09:27:47.247Z,6.88
2023-05-17T09:28:50.572Z,6.77
2023-05-17T09:29:55.766Z,7.16
2023-05-17T09:31:06.273Z,7.09
2023-05-17T09:32:23.285Z,6.99
2023-05-17T09:33:26.728Z,6.95
2023-05-17T09:34:29.936Z,7.02
2023-05-17T09:35:34.522Z,7.11
2023-05-17T09:36:39.769Z,7.24
2023-05-17T09:37:46.449Z,6.91
2023-05-17T09:39:01.408Z,6.49
2023-05-17T09:40:08.101Z,6.64
2023-05-17T09:41:11.618Z,7.09
2023-05-17T09:42:17.377Z,6.80
2023-05-17T09:43:28.945Z,6.76
2023-05-17T09:44:32.281Z,6.63
2023-05-17T09:45:37.266Z,6.43
2023-05-17T09:46:46.918Z,6.17
2023-05-17T09:47:50.300Z,6.71
2023-05-17T09:48:57.371Z,6.57
2023-05-17T09:50:07.124Z,6.16
2023-05-17T09:51:13.033Z,6.28
2023-05-17T09:52:21.321Z,6.48
2023-05-17T09:53:33.521Z,6.19
2023-05-17T09:54:42.019Z,6.14
2023-05-17T09:55:49.489Z,6.18
2023-05-17T09:56:56.451Z,6.03
2023-05-17T09:58:04.898Z,6.00
2023-05-17T09:59:16.962Z,5.95
2023-05-17T10:00:23.021Z,6.48
2023-05-17T10:01:31.575Z,6.42
2023-05-17T10:02:37.965Z,6.39
2023-05-17T10:03:41.519Z,6.49
2023-05-17T10:04:47.990Z,6.39
2023-05-17T10:05:55.684Z,6.69
2023-05-17T10:07:01.131Z,6.67
2023-05-17T10:08:08.041Z,6.22
2023-05-17T10:09:15.254Z,6.45
2023-05-17T10:10:20.021Z,6.89
2023-05-17T10:11:28.853Z,7.01
2023-05-17T10:12:37.083Z,6.50
2023-05-17T10:13:50.719Z,6.14
2023-05-17T10:14:57.783Z,6.52
2023-05-17T10:16:02.522Z,6.82
2023-05-17T10:17:09.827Z,6.57
2023-05-17T10:18:14.730Z,6.58
2023-05-17T10:19:21.176Z,6.52
2023-05-17T10:20:25.186Z,6.76
2023-05-17T10:21:29.333Z,6.68
2023-05-17T10:22:34.020Z,6.03
2023-05-17T10:23:40.032Z,6.20
2023-05-17T10:24:47.273Z,6.06
2023-05-17T10:25:54.208Z,6.73
2023-05-17T10:26:58.644Z,6.70
2023-05-17T10:28:02.540Z,6.11
2023-05-17T10:29:07.176Z,6.13
2023-05-17T10:30:12.290Z,6.12
2023-05-17T10:31:16.508Z,6.34
2023-05-17T10:32:23.934Z,5.52
2023-05-17T10:33:28.837Z,5.93
2023-05-17T10:34:32.878Z,6.22
2023-05-17T10:35:38.642Z,5.88
2023-05-17T10:36:44.936Z,5.86
2023-05-17T10:37:48.304Z,5.81
2023-05-17T10:38:53.268Z,5.56
2023-05-17T10:39:57.910Z,5.76
2023-05-17T10:41:03.867Z,5.49
2023-05-17T10:42:14.910Z,5.23
2023-05-17T10:43:20.731Z,5.63
2023-05-17T10:44:25.242Z,5.51
2023-05-17T10:45:29.161Z,5.78
2023-05-17T10:46:32.973Z,5.56
2023-05-17T10:47:36.835Z,5.55
2023-05-17T10:48:41.734Z,5.62
2023-05-17T10:49:48.601Z,5.80
2023-05-17T10:51:01.157Z,5.67
2023-05-17T10:52:17.521Z,5.73
2023-05-17T10:53:20.902Z,5.58
2023-05-17T10:54:35.971Z,5.47
2023-05-17T10:55:43.293Z,5.17
2023-05-17T10:56:51.287Z,5.63
2023-05-17T10:58:17.522Z,5.58
2023-05-17T10:59:25.179Z,5.71
2023-05-17T11:00:34.131Z,5.51
2023-05-17T11:01:57.345Z,5.45
2023-05-17T11:03:30.869Z,5.21
2023-05-17T11:04:38.334Z,5.61
2023-05-17T11:06:13.083Z,5.77
2023-05-17T11:07:30.052Z,5.17
2023-05-17T11:08:35.790Z,5.00
2023-05-17T11:09:41.760Z,5.03
2023-05-17T11:11:14.785Z,5.05
2023-05-17T11:12:28.363Z,5.35
2023-05-17T11:13:32.186Z,5.37
2023-05-17T11:14:54.638Z,5.80
2023-05-17T11:16:09.055Z,5.00
2023-05-17T11:17:21.424Z,5.36
2023-05-17T11:18:31.311Z,5.17
2023-05-17T11:19:37.977Z,5.13
2023-05-17T11:20:42.743Z,5.17
2023-05-17T11:21:48.098Z,5.22
2023-05-17T11:22:56.796Z,5.15
2023-05-17T11:24:04.991Z,4.84
2023-05-17T11:25:14.009Z,5.34
2023-05-17T11:26:30.230Z,5.01
2023-05-17T11:27:42.021Z,4.92
2023-05-17T11:28:45.618Z,5.16
2023-05-17T11:29:48.905Z,4.76
2023-05-17T11:31:01.132Z,5.18
2023-05-17T11:32:10.171Z,5.33
2023-05-17T11:33:20.932Z,4.99
2023-05-17T11:34:34.946Z,5.01
2023-05-17T11:35:40.738Z,5.04
2023-05-17T11:36:55.234Z,5.20
2023-05-17T11:38:20.715Z,4.91
2023-05-17T11:39:27.773Z,5.29
2023-05-17T11:40:31.904Z,5.28
2023-05-17T11:41:48.589Z,5.46
2023-05-17T11:43:11.770Z,4.72
2023-05-17T11:44:15.891Z,4.98
2023-05-17T11:45:19.498Z,4.55
2023-05-17T11:46:24.599Z,5.29
2023-05-17T11:47:29.540Z,4.96
2023-05-17T11:48:33.415Z,5.16
2023-05-17T11:49:39.746Z,4.94
2023-05-17T11:50:44.397Z,5.10
2023-05-17T11:51:47.856Z,5.36
2023-05-17T11:52:53.677Z,5.19
2023-05-17T11:53:57.944Z,5.10
2023-05-17T11:55:02.159Z,5.47
2023-05-17T11:56:06.129Z,5.09
2023-05-17T11:57:12.424Z,5.01
2023-05-17T11:58:18.144Z,5.08
2023-05-17T11:59:22.211Z,5.09
2023-05-17T12:00:28.839Z,5.21
2023-05-17T12:01:47.419Z,5.18
2023-05-17T12:02:50.837Z,5.17
2023-05-17T12:04:01.801Z,5.30
2023-05-17T12:05:05.354Z,4.92
2023-05-17T12:06:12.183Z,4.81
2023-05-17T12:07:16.193Z,5.17
2023-05-17T12:08:21.288Z,5.14
2023-05-17T12:09:25.149Z,4.81
2023-05-17T12:10:29.571Z,4.99
2023-05-17T12:11:34.449Z,5.02
2023-05-17T12:12:37.791Z,4.54
2023-05-17T12:13:43.355Z,4.77
2023-05-17T12:14:48.596Z,5.14
2023-05-17T12:16:00.629Z,4.93
2023-05-17T12:17:10.564Z,4.88
2023-05-17T12:18:14.259Z,4.61
2023-05-17T12:19:30.471Z,4.69
2023-05-17T12:20:36.037Z,4.62
2023-05-17T12:21:39.800Z,4.92
2023-05-17T12:22:56.720Z,5.24
2023-05-17T12:23:59.989Z,4.55
2023-05-17T12:25:03.449Z,4.75
2023-05-17T12:26:15.985Z,4.71
2023-05-17T12:27:27.846Z,5.07
2023-05-17T12:28:31.048Z,5.12
2023-05-17T12:29:34.742Z,5.06
2023-05-17T12:30:38.197Z,4.95
2023-05-17T12:31:52.966Z,4.71
2023-05-17T12:32:56.541Z,4.81
2023-05-17T12:34:03.053Z,5.25
2023-05-17T12:35:06.901Z,5.18
2023-05-17T12:36:13.909Z,4.71
2023-05-17T12:37:17.650Z,4.74
2023-05-17T12:38:21.691Z,5.00
2023-05-17T12:39:26.461Z,4.80
2023-05-17T12:40:31.688Z,5.22
2023-05-17T12:41:35.528Z,5.09
2023-05-17T12:42:41.904Z,5.03
2023-05-17T12:43:47.041Z,4.72
2023-05-17T12:44:50.859Z,4.81
2023-05-17T12:45:54.524Z,4.93
2023-05-17T12:46:58.682Z,5.13
2023-05-17T12:48:02.156Z,4.86
2023-05-17T12:49:11.882Z,4.77
2023-05-17T12:50:15.300Z,5.30
2023-05-17T12:51:23.416Z,4.91
2023-05-17T12:52:26.757Z,5.05
2023-05-17T12:53:39.288Z,4.94
2023-05-17T12:54:42.660Z,4.90
2023-05-17T12:55:45.872Z,4.77
2023-05-17T12:56:49.138Z,5.03
2023-05-17T12:57:55.958Z,5.15
2023-05-17T12:59:29.725Z,4.68
2023-05-17T13:00:33.185Z,5.06
2023-05-17T13:01:41.264Z,4.86
2023-05-17T13:02:44.834Z,4.70
2023-05-17T13:03:52.174Z,4.63
2023-05-17T13:04:55.925Z,4.34
2023-05-17T13:06:08.684Z,4.36
2023-05-17T13:07:13.134Z,4.35
2023-05-17T13:08:28.010Z,4.24
2023-05-17T13:09:33.522Z,4.09
2023-05-17T13:10:36.907Z,4.07
2023-05-17T13:11:42.170Z,4.28
2023-05-17T13:12:59.157Z,4.03
2023-05-17T13:14:02.550Z,4.00
2023-05-17T13:15:08.670Z,3.83
2023-05-17T13:16:12.135Z,4.49
2023-05-17T13:17:16.574Z,4.16
2023-05-17T13:18:22.056Z,4.04
2023-05-17T13:19:25.829Z,4.49
2023-05-17T13:20:29.959Z,3.96
2023-05-17T13:21:33.398Z,3.64
2023-05-17T13:22:36.759Z,4.32
2023-05-17T13:23:48.951Z,3.95
2023-05-17T13:24:52.226Z,4.78
2023-05-17T13:25:55.594Z,4.15
2023-05-17T13:26:58.879Z,3.95
2023-05-17T13:28:03.231Z,3.68
2023-05-17T13:29:06.461Z,4.51
2023-05-17T13:30:10.456Z,3.99
2023-05-17T13:31:13.845Z,3.91
2023-05-17T13:32:17.061Z,3.82
2023-05-17T13:33:21.068Z,4.02
2023-05-17T13:34:24.670Z,4.18
2023-05-17T13:35:27.981Z,4.14
2023-05-17T13:36:31.834Z,4.22
2023-05-17T13:37:36.401Z,4.39
2023-05-17T13:38:39.780Z,4.50
2023-05-17T13:39:43.122Z,4.49
2023-05-17T13:40:47.364Z,4.53
2023-05-17T13:41:51.175Z,4.39
2023-05-17T13:42:54.534Z,4.34
2023-05-17T13:44:00.871Z,4.23
2023-05-17T13:45:04.835Z,4.24
2023-05-17T13:46:08.221Z,4.32
2023-05-17T13:47:11.860Z,4.32
2023-05-17T13:48:15.188Z,4.28
2023-05-17T13:49:19.258Z,4.28
2023-05-17T13:50:23.679Z,4.06
2023-05-17T13:51:29.562Z,4.44
2023-05-17T13:52:32.923Z,4.07
2023-05-17T13:53:36.376Z,3.90
2023-05-17T13:54:41.244Z,3.84
2023-05-17T13:55:44.659Z,3.71
2023-05-17T13:56:48.004Z,3.91
2023-05-17T13:57:51.380Z,3.81
2023-05-17T13:58:54.600Z,4.08
2023-05-17T13:59:58.095Z,4.03
2023-05-17T14:01:01.532Z,4.09
2023-05-17T14:02:05.133Z,3.94
2023-05-17T14:03:08.620Z,3.91
2023-05-17T14:04:12.378Z,4.13
2023-05-17T14:05:16.218Z,3.66
2023-05-17T14:06:19.530Z,3.93
2023-05-17T14:07:22.919Z,3.75
2023-05-17T14:08:26.387Z,4.26
2023-05-17T14:09:33.626Z,3.85
2023-05-17T14:10:37.875Z,4.04
2023-05-17T14:11:41.476Z,3.85
2023-05-17T14:12:44.930Z,3.41
2023-05-17T14:13:50.201Z,3.72
2023-05-17T14:14:53.627Z,3.57
2023-05-17T14:15:57.033Z,3.73
2023-05-17T14:17:02.090Z,3.55
2023-05-17T14:18:07.166Z,3.83
2023-05-17T14:19:10.465Z,3.80
2023-05-17T14:20:15.118Z,4.36
2023-05-17T14:21:18.641Z,3.89
2023-05-17T14:22:22.544Z,4.09
2023-05-17T14:23:26.940Z,4.03
2023-05-17T14:24:30.415Z,4.20
2023-05-17T14:25:34.113Z,4.19
2023-05-17T14:26:37.885Z,3.77
2023-05-17T14:27:41.411Z,3.98
2023-05-17T14:28:44.887Z,4.38